sensor_id;sensor_type;location;lat;lon;timestamp;pressure;altitude;pressure_sealevel;temperature;humidity
40570;BME280;26270;34.428;-119.710;2022-09-01T00:00:50;100577.58;;;28.02;42.97
40570;BME280;26270;34.428;-119.710;2022-09-01T00:03:19;100578.67;;;28.05;42.96
40570;BME280;26270;34.428;-119.710;2022-09-01T00:05:48;100572.86;;;28.12;42.96
40570;BME280;26270;34.428;-119.710;2022-09-01T00:08:16;100576.65;;;27.95;43.23
40570;BME280;26270;34.428;-119.710;2022-09-01T00:10:44;100569.83;;;27.90;43.11
40570;BME280;26270;34.428;-119.710;2022-09-01T00:13:13;100568.48;;;27.81;43.31
40570;BME280;26270;34.428;-119.710;2022-09-01T00:15:42;100567.65;;;27.73;43.40
40570;BME280;26270;34.428;-119.710;2022-09-01T00:18:11;100568.18;;;27.69;43.33
40570;BME280;26270;34.428;-119.710;2022-09-01T00:20:39;100574.25;;;27.78;43.47
40570;BME280;26270;34.428;-119.710;2022-09-01T00:23:08;100572.79;;;27.58;43.75
40570;BME280;26270;34.428;-119.710;2022-09-01T00:25:36;100571.39;;;27.56;44.59
40570;BME280;26270;34.428;-119.710;2022-09-01T00:28:04;100567.50;;;27.45;44.35
40570;BME280;26270;34.428;-119.710;2022-09-01T00:30:32;100564.23;;;27.39;44.26
40570;BME280;26270;34.428;-119.710;2022-09-01T00:33:00;100565.99;;;27.27;44.30
40570;BME280;26270;34.428;-119.710;2022-09-01T00:35:28;100568.21;;;27.29;44.47
40570;BME280;26270;34.428;-119.710;2022-09-01T00:37:56;100567.80;;;26.97;45.13
40570;BME280;26270;34.428;-119.710;2022-09-01T00:40:24;100562.75;;;27.26;45.32
40570;BME280;26270;34.428;-119.710;2022-09-01T00:42:53;100561.36;;;26.96;45.01
40570;BME280;26270;34.428;-119.710;2022-09-01T00:45:22;100561.10;;;27.07;45.15
40570;BME280;26270;34.428;-119.710;2022-09-01T00:47:51;100561.85;;;27.20;45.10
40570;BME280;26270;34.428;-119.710;2022-09-01T00:50:19;100558.76;;;26.78;45.28
40570;BME280;26270;34.428;-119.710;2022-09-01T00:52:51;100555.93;;;26.75;45.34
40570;BME280;26270;34.428;-119.710;2022-09-01T00:55:25;100551.08;;;27.00;45.30
40570;BME280;26270;34.428;-119.710;2022-09-01T00:57:55;100546.12;;;26.80;45.39
40570;BME280;26270;34.428;-119.710;2022-09-01T01:00:26;100547.85;;;26.78;45.68
40570;BME280;26270;34.428;-119.710;2022-09-01T01:02:55;100545.90;;;26.70;45.65
40570;BME280;26270;34.428;-119.710;2022-09-01T01:05:24;100541.16;;;26.61;45.75
40570;BME280;26270;34.428;-119.710;2022-09-01T01:07:55;100539.43;;;26.50;46.03
40570;BME280;26270;34.428;-119.710;2022-09-01T01:10:24;100534.78;;;26.55;46.04
40570;BME280;26270;34.428;-119.710;2022-09-01T01:12:52;100536.31;;;26.43;46.48
40570;BME280;26270;34.428;-119.710;2022-09-01T01:15:20;100537.76;;;26.26;46.79
40570;BME280;26270;34.428;-119.710;2022-09-01T01:17:47;100537.18;;;26.38;46.55
40570;BME280;26270;34.428;-119.710;2022-09-01T01:20:16;100538.60;;;26.22;46.83
40570;BME280;26270;34.428;-119.710;2022-09-01T01:22:50;100539.91;;;26.07;47.32
40570;BME280;26270;34.428;-119.710;2022-09-01T01:25:20;100537.90;;;26.12;47.34
40570;BME280;26270;34.428;-119.710;2022-09-01T01:27:49;100534.35;;;25.97;47.66
40570;BME280;26270;34.428;-119.710;2022-09-01T01:30:19;100533.56;;;26.09;47.53
40570;BME280;26270;34.428;-119.710;2022-09-01T01:32:48;100530.83;;;25.79;47.80
40570;BME280;26270;34.428;-119.710;2022-09-01T01:35:16;100530.38;;;25.78;47.88
40570;BME280;26270;34.428;-119.710;2022-09-01T01:37:46;100529.45;;;25.82;48.12
40570;BME280;26270;34.428;-119.710;2022-09-01T01:40:16;100526.94;;;25.64;48.45
40570;BME280;26270;34.428;-119.710;2022-09-01T01:42:47;100524.82;;;25.47;48.76
40570;BME280;26270;34.428;-119.710;2022-09-01T01:45:18;100519.60;;;25.44;48.79
40570;BME280;26270;34.428;-119.710;2022-09-01T01:47:49;100519.98;;;25.36;48.90
40570;BME280;26270;34.428;-119.710;2022-09-01T01:50:18;100510.85;;;25.47;48.94
40570;BME280;26270;34.428;-119.710;2022-09-01T01:52:47;100509.56;;;25.36;49.22
40570;BME280;26270;34.428;-119.710;2022-09-01T01:55:15;100504.01;;;25.30;49.49
40570;BME280;26270;34.428;-119.710;2022-09-01T01:57:44;100503.68;;;25.03;50.30
40570;BME280;26270;34.428;-119.710;2022-09-01T02:00:13;100504.42;;;25.08;50.06
40570;BME280;26270;34.428;-119.710;2022-09-01T02:02:40;100501.03;;;24.90;50.62
40570;BME280;26270;34.428;-119.710;2022-09-01T02:05:09;100496.35;;;24.93;50.56
40570;BME280;26270;34.428;-119.710;2022-09-01T02:07:37;100496.24;;;24.82;50.87
40570;BME280;26270;34.428;-119.710;2022-09-01T02:10:06;100495.02;;;24.82;50.89
40570;BME280;26270;34.428;-119.710;2022-09-01T02:12:34;100493.79;;;24.66;51.28
40570;BME280;26270;34.428;-119.710;2022-09-01T02:15:02;100497.85;;;24.83;51.11
40570;BME280;26270;34.428;-119.710;2022-09-01T02:17:30;100493.81;;;24.65;51.27
40570;BME280;26270;34.428;-119.710;2022-09-01T02:19:58;100490.90;;;24.95;51.13
40570;BME280;26270;34.428;-119.710;2022-09-01T02:22:26;100493.38;;;24.43;51.80
40570;BME280;26270;34.428;-119.710;2022-09-01T02:24:54;100488.33;;;24.48;51.63
40570;BME280;26270;34.428;-119.710;2022-09-01T02:27:23;100494.11;;;24.48;51.95
40570;BME280;26270;34.428;-119.710;2022-09-01T02:29:51;100493.72;;;24.35;51.95
40570;BME280;26270;34.428;-119.710;2022-09-01T02:32:19;100490.65;;;24.31;52.30
40570;BME280;26270;34.428;-119.710;2022-09-01T02:34:48;100483.90;;;24.26;52.47
40570;BME280;26270;34.428;-119.710;2022-09-01T02:37:16;100489.22;;;24.21;52.67
40570;BME280;26270;34.428;-119.710;2022-09-01T02:39:44;100489.13;;;24.14;52.82
40570;BME280;26270;34.428;-119.710;2022-09-01T02:42:12;100490.36;;;24.09;52.99
40570;BME280;26270;34.428;-119.710;2022-09-01T02:44:41;100493.45;;;24.07;53.28
40570;BME280;26270;34.428;-119.710;2022-09-01T02:47:09;100491.31;;;24.12;53.36
40570;BME280;26270;34.428;-119.710;2022-09-01T02:49:38;100491.48;;;23.92;53.71
40570;BME280;26270;34.428;-119.710;2022-09-01T02:52:06;100491.13;;;23.84;54.06
40570;BME280;26270;34.428;-119.710;2022-09-01T02:54:33;100484.39;;;23.76;54.35
40570;BME280;26270;34.428;-119.710;2022-09-01T02:57:02;100488.15;;;23.74;54.39
40570;BME280;26270;34.428;-119.710;2022-09-01T02:59:30;100486.14;;;23.74;54.31
40570;BME280;26270;34.428;-119.710;2022-09-01T03:01:59;100481.89;;;23.86;54.37
40570;BME280;26270;34.428;-119.710;2022-09-01T03:04:27;100487.72;;;23.79;54.53
40570;BME280;26270;34.428;-119.710;2022-09-01T03:06:56;100483.63;;;23.62;54.68
40570;BME280;26270;34.428;-119.710;2022-09-01T03:09:24;100480.20;;;23.43;54.92
40570;BME280;26270;34.428;-119.710;2022-09-01T03:11:53;100479.17;;;23.65;54.82
40570;BME280;26270;34.428;-119.710;2022-09-01T03:14:23;100480.94;;;23.66;54.89
40570;BME280;26270;34.428;-119.710;2022-09-01T03:16:52;100487.34;;;23.04;56.56
40570;BME280;26270;34.428;-119.710;2022-09-01T03:19:20;100484.57;;;23.46;55.63
40570;BME280;26270;34.428;-119.710;2022-09-01T03:21:48;100486.56;;;23.41;55.82
40570;BME280;26270;34.428;-119.710;2022-09-01T03:24:18;100478.13;;;23.42;55.62
40570;BME280;26270;34.428;-119.710;2022-09-01T03:26:50;100480.55;;;23.43;55.67
40570;BME280;26270;34.428;-119.710;2022-09-01T03:29:19;100480.60;;;23.49;55.82
40570;BME280;26270;34.428;-119.710;2022-09-01T03:31:48;100481.58;;;23.46;56.01
40570;BME280;26270;34.428;-119.710;2022-09-01T03:34:16;100482.38;;;23.61;56.00
40570;BME280;26270;34.428;-119.710;2022-09-01T03:36:44;100487.67;;;23.48;56.07
40570;BME280;26270;34.428;-119.710;2022-09-01T03:39:12;100484.43;;;23.58;56.04
40570;BME280;26270;34.428;-119.710;2022-09-01T03:41:41;100478.61;;;23.21;57.01
40570;BME280;26270;34.428;-119.710;2022-09-01T03:44:09;100487.42;;;23.31;56.83
40570;BME280;26270;34.428;-119.710;2022-09-01T03:46:37;100487.53;;;23.18;56.83
40570;BME280;26270;34.428;-119.710;2022-09-01T03:49:06;100492.35;;;23.44;56.31
40570;BME280;26270;34.428;-119.710;2022-09-01T03:51:34;100491.20;;;23.21;56.55
40570;BME280;26270;34.428;-119.710;2022-09-01T03:54:02;100498.15;;;23.30;57.07
40570;BME280;26270;34.428;-119.710;2022-09-01T03:56:31;100490.24;;;23.28;57.29
40570;BME280;26270;34.428;-119.710;2022-09-01T03:59:00;100490.41;;;23.38;56.54
40570;BME280;26270;34.428;-119.710;2022-09-01T04:03:20;100503.21;;;23.32;56.69
40570;BME280;26270;34.428;-119.710;2022-09-01T04:05:49;100501.74;;;23.34;56.64
40570;BME280;26270;34.428;-119.710;2022-09-01T04:08:19;100502.65;;;23.34;56.78
40570;BME280;26270;34.428;-119.710;2022-09-01T04:10:50;100499.60;;;23.27;56.75
40570;BME280;26270;34.428;-119.710;2022-09-01T04:13:21;100499.14;;;23.05;57.58
40570;BME280;26270;34.428;-119.710;2022-09-01T04:15:49;100504.69;;;23.25;57.70
40570;BME280;26270;34.428;-119.710;2022-09-01T04:18:18;100497.78;;;23.16;57.75
40570;BME280;26270;34.428;-119.710;2022-09-01T04:20:49;100499.15;;;23.21;58.06
40570;BME280;26270;34.428;-119.710;2022-09-01T04:23:19;100498.25;;;23.24;58.15
40570;BME280;26270;34.428;-119.710;2022-09-01T04:25:48;100493.92;;;23.11;59.64
40570;BME280;26270;34.428;-119.710;2022-09-01T04:28:17;100493.23;;;23.08;58.63
40570;BME280;26270;34.428;-119.710;2022-09-01T04:30:45;100484.94;;;23.14;58.81
40570;BME280;26270;34.428;-119.710;2022-09-01T04:33:13;100482.74;;;23.05;58.04
40570;BME280;26270;34.428;-119.710;2022-09-01T04:35:41;100490.22;;;23.08;58.14
40570;BME280;26270;34.428;-119.710;2022-09-01T04:38:09;100485.74;;;23.21;58.16
40570;BME280;26270;34.428;-119.710;2022-09-01T04:40:38;100483.67;;;22.91;59.01
40570;BME280;26270;34.428;-119.710;2022-09-01T04:43:07;100482.32;;;23.17;58.25
40570;BME280;26270;34.428;-119.710;2022-09-01T04:45:35;100491.56;;;23.07;57.98
40570;BME280;26270;34.428;-119.710;2022-09-01T04:48:05;100498.36;;;22.94;58.52
40570;BME280;26270;34.428;-119.710;2022-09-01T04:50:33;100500.15;;;23.13;58.10
40570;BME280;26270;34.428;-119.710;2022-09-01T04:53:03;100490.48;;;22.85;58.67
40570;BME280;26270;34.428;-119.710;2022-09-01T04:55:32;100495.28;;;22.72;59.66
40570;BME280;26270;34.428;-119.710;2022-09-01T04:58:00;100493.01;;;22.90;58.65
40570;BME280;26270;34.428;-119.710;2022-09-01T05:00:30;100493.38;;;22.45;60.43
40570;BME280;26270;34.428;-119.710;2022-09-01T05:03:00;100490.05;;;22.85;59.08
40570;BME280;26270;34.428;-119.710;2022-09-01T05:05:34;100490.55;;;22.78;59.45
40570;BME280;26270;34.428;-119.710;2022-09-01T05:08:03;100486.27;;;22.60;60.36
40570;BME280;26270;34.428;-119.710;2022-09-01T05:10:31;100494.50;;;22.64;60.30
40570;BME280;26270;34.428;-119.710;2022-09-01T05:13:00;100489.46;;;22.58;60.76
40570;BME280;26270;34.428;-119.710;2022-09-01T05:15:28;100486.39;;;22.72;60.13
40570;BME280;26270;34.428;-119.710;2022-09-01T05:17:56;100482.51;;;22.63;59.90
40570;BME280;26270;34.428;-119.710;2022-09-01T05:20:24;100488.31;;;22.63;59.97
40570;BME280;26270;34.428;-119.710;2022-09-01T05:22:51;100486.91;;;22.88;59.24
40570;BME280;26270;34.428;-119.710;2022-09-01T05:25:19;100483.40;;;23.05;59.26
40570;BME280;26270;34.428;-119.710;2022-09-01T05:27:48;100478.85;;;22.83;59.55
40570;BME280;26270;34.428;-119.710;2022-09-01T05:30:17;100486.56;;;22.85;59.31
40570;BME280;26270;34.428;-119.710;2022-09-01T05:32:45;100486.46;;;22.88;59.53
40570;BME280;26270;34.428;-119.710;2022-09-01T05:35:13;100490.92;;;22.65;60.22
40570;BME280;26270;34.428;-119.710;2022-09-01T05:37:42;100487.61;;;22.59;60.65
40570;BME280;26270;34.428;-119.710;2022-09-01T05:40:10;100478.46;;;22.70;59.83
40570;BME280;26270;34.428;-119.710;2022-09-01T05:42:39;100469.42;;;22.68;59.81
40570;BME280;26270;34.428;-119.710;2022-09-01T05:45:08;100473.37;;;22.41;61.18
40570;BME280;26270;34.428;-119.710;2022-09-01T05:47:37;100475.04;;;22.85;59.75
40570;BME280;26270;34.428;-119.710;2022-09-01T05:50:11;100474.67;;;22.74;60.03
40570;BME280;26270;34.428;-119.710;2022-09-01T05:52:39;100480.93;;;22.56;60.52
40570;BME280;26270;34.428;-119.710;2022-09-01T05:55:08;100479.50;;;22.70;59.94
40570;BME280;26270;34.428;-119.710;2022-09-01T05:57:36;100468.29;;;22.62;60.43
40570;BME280;26270;34.428;-119.710;2022-09-01T06:00:07;100470.11;;;22.75;59.89
40570;BME280;26270;34.428;-119.710;2022-09-01T06:02:36;100476.57;;;22.78;60.04
40570;BME280;26270;34.428;-119.710;2022-09-01T06:05:05;100481.52;;;22.63;60.12
40570;BME280;26270;34.428;-119.710;2022-09-01T06:07:33;100472.05;;;22.44;60.68
40570;BME280;26270;34.428;-119.710;2022-09-01T06:10:01;100471.90;;;22.28;61.35
40570;BME280;26270;34.428;-119.710;2022-09-01T06:12:29;100465.50;;;22.28;60.91
40570;BME280;26270;34.428;-119.710;2022-09-01T06:14:58;100468.15;;;22.35;60.79
40570;BME280;26270;34.428;-119.710;2022-09-01T06:17:28;100464.41;;;22.41;60.59
40570;BME280;26270;34.428;-119.710;2022-09-01T06:19:57;100462.02;;;22.51;61.34
40570;BME280;26270;34.428;-119.710;2022-09-01T06:22:27;100455.36;;;22.42;60.70
40570;BME280;26270;34.428;-119.710;2022-09-01T06:24:55;100463.58;;;22.45;60.56
40570;BME280;26270;34.428;-119.710;2022-09-01T06:27:24;100461.16;;;22.28;62.88
40570;BME280;26270;34.428;-119.710;2022-09-01T06:29:52;100448.35;;;22.55;61.15
40570;BME280;26270;34.428;-119.710;2022-09-01T06:32:20;100460.26;;;22.56;61.03
40570;BME280;26270;34.428;-119.710;2022-09-01T06:34:48;100448.44;;;22.58;60.52
40570;BME280;26270;34.428;-119.710;2022-09-01T06:37:17;100443.52;;;22.73;60.95
40570;BME280;26270;34.428;-119.710;2022-09-01T06:39:45;100436.79;;;22.53;59.99
40570;BME280;26270;34.428;-119.710;2022-09-01T06:42:13;100440.27;;;22.58;60.85
40570;BME280;26270;34.428;-119.710;2022-09-01T06:44:41;100436.42;;;22.43;60.50
40570;BME280;26270;34.428;-119.710;2022-09-01T06:47:09;100427.00;;;22.55;60.35
40570;BME280;26270;34.428;-119.710;2022-09-01T06:49:37;100436.48;;;22.45;60.20
40570;BME280;26270;34.428;-119.710;2022-09-01T06:52:04;100431.53;;;22.38;60.65
40570;BME280;26270;34.428;-119.710;2022-09-01T06:54:33;100425.68;;;22.20;61.86
40570;BME280;26270;34.428;-119.710;2022-09-01T06:57:02;100434.17;;;22.37;60.39
40570;BME280;26270;34.428;-119.710;2022-09-01T06:59:31;100431.71;;;22.29;60.46
40570;BME280;26270;34.428;-119.710;2022-09-01T07:02:00;100437.67;;;22.39;61.99
40570;BME280;26270;34.428;-119.710;2022-09-01T07:04:29;100436.65;;;22.32;60.63
40570;BME280;26270;34.428;-119.710;2022-09-01T07:06:57;100437.21;;;22.36;60.42
40570;BME280;26270;34.428;-119.710;2022-09-01T07:09:25;100435.87;;;22.32;60.68
40570;BME280;26270;34.428;-119.710;2022-09-01T07:11:53;100439.21;;;22.43;60.94
40570;BME280;26270;34.428;-119.710;2022-09-01T07:14:21;100438.84;;;22.44;60.37
40570;BME280;26270;34.428;-119.710;2022-09-01T07:16:49;100429.17;;;22.38;60.35
40570;BME280;26270;34.428;-119.710;2022-09-01T07:19:18;100426.32;;;22.31;60.85
40570;BME280;26270;34.428;-119.710;2022-09-01T07:21:46;100436.65;;;22.30;60.56
40570;BME280;26270;34.428;-119.710;2022-09-01T07:24:15;100441.98;;;22.43;60.50
40570;BME280;26270;34.428;-119.710;2022-09-01T07:26:44;100431.85;;;22.32;60.38
40570;BME280;26270;34.428;-119.710;2022-09-01T07:29:12;100426.54;;;22.18;61.04
40570;BME280;26270;34.428;-119.710;2022-09-01T07:31:41;100431.31;;;21.74;62.08
40570;BME280;26270;34.428;-119.710;2022-09-01T07:34:12;100429.98;;;22.32;60.16
40570;BME280;26270;34.428;-119.710;2022-09-01T07:36:42;100433.85;;;22.26;60.39
40570;BME280;26270;34.428;-119.710;2022-09-01T07:39:12;100424.39;;;22.36;60.46
40570;BME280;26270;34.428;-119.710;2022-09-01T07:41:41;100413.42;;;22.27;60.25
40570;BME280;26270;34.428;-119.710;2022-09-01T07:44:09;100412.50;;;22.34;60.00
40570;BME280;26270;34.428;-119.710;2022-09-01T07:46:38;100409.09;;;22.19;60.55
40570;BME280;26270;34.428;-119.710;2022-09-01T07:49:07;100407.39;;;22.08;60.55
40570;BME280;26270;34.428;-119.710;2022-09-01T07:51:35;100423.57;;;21.92;61.49
40570;BME280;26270;34.428;-119.710;2022-09-01T07:54:04;100413.80;;;22.14;60.19
40570;BME280;26270;34.428;-119.710;2022-09-01T07:56:34;100413.76;;;21.80;61.87
40570;BME280;26270;34.428;-119.710;2022-09-01T07:59:02;100393.79;;;22.00;61.53
40570;BME280;26270;34.428;-119.710;2022-09-01T08:01:30;100397.72;;;21.96;60.89
40570;BME280;26270;34.428;-119.710;2022-09-01T08:03:59;100398.84;;;22.01;61.39
40570;BME280;26270;34.428;-119.710;2022-09-01T08:06:28;100391.39;;;21.97;61.09
40570;BME280;26270;34.428;-119.710;2022-09-01T08:08:58;100383.55;;;21.92;61.17
40570;BME280;26270;34.428;-119.710;2022-09-01T08:11:28;100375.88;;;22.07;60.87
40570;BME280;26270;34.428;-119.710;2022-09-01T08:13:58;100383.23;;;22.10;60.57
40570;BME280;26270;34.428;-119.710;2022-09-01T08:16:26;100396.02;;;22.02;60.73
40570;BME280;26270;34.428;-119.710;2022-09-01T08:18:55;100390.84;;;21.70;61.76
40570;BME280;26270;34.428;-119.710;2022-09-01T08:21:24;100405.31;;;21.93;61.65
40570;BME280;26270;34.428;-119.710;2022-09-01T08:23:54;100394.80;;;21.85;61.76
40570;BME280;26270;34.428;-119.710;2022-09-01T08:26:24;100402.68;;;22.03;61.25
40570;BME280;26270;34.428;-119.710;2022-09-01T08:28:53;100400.60;;;22.00;61.11
40570;BME280;26270;34.428;-119.710;2022-09-01T08:31:23;100399.52;;;21.79;61.63
40570;BME280;26270;34.428;-119.710;2022-09-01T08:33:51;100399.76;;;21.75;61.51
40570;BME280;26270;34.428;-119.710;2022-09-01T08:36:21;100399.89;;;21.83;61.24
40570;BME280;26270;34.428;-119.710;2022-09-01T08:38:50;100397.50;;;21.82;61.58
40570;BME280;26270;34.428;-119.710;2022-09-01T08:41:25;100389.32;;;21.92;61.31
40570;BME280;26270;34.428;-119.710;2022-09-01T08:44:04;100392.66;;;22.04;60.75
40570;BME280;26270;34.428;-119.710;2022-09-01T08:46:37;100393.54;;;21.99;60.93
40570;BME280;26270;34.428;-119.710;2022-09-01T08:49:11;100389.63;;;21.98;61.19
40570;BME280;26270;34.428;-119.710;2022-09-01T08:51:45;100386.19;;;22.01;60.82
40570;BME280;26270;34.428;-119.710;2022-09-01T08:54:22;100387.72;;;21.99;60.89
40570;BME280;26270;34.428;-119.710;2022-09-01T08:56:56;100390.17;;;21.86;61.34
40570;BME280;26270;34.428;-119.710;2022-09-01T08:59:25;100404.77;;;21.91;61.14
40570;BME280;26270;34.428;-119.710;2022-09-01T09:01:59;100414.81;;;21.42;62.23
40570;BME280;26270;34.428;-119.710;2022-09-01T09:04:46;100399.23;;;21.87;61.27
40570;BME280;26270;34.428;-119.710;2022-09-01T09:07:26;100403.58;;;22.05;60.97
40570;BME280;26270;34.428;-119.710;2022-09-01T09:10:04;100394.61;;;22.09;60.82
40570;BME280;26270;34.428;-119.710;2022-09-01T09:12:43;100390.83;;;22.11;60.74
40570;BME280;26270;34.428;-119.710;2022-09-01T09:15:19;100394.17;;;21.89;61.45
40570;BME280;26270;34.428;-119.710;2022-09-01T09:17:53;100393.39;;;21.89;61.10
40570;BME280;26270;34.428;-119.710;2022-09-01T09:20:26;100401.27;;;21.91;61.03
40570;BME280;26270;34.428;-119.710;2022-09-01T09:22:55;100400.40;;;22.15;60.36
40570;BME280;26270;34.428;-119.710;2022-09-01T09:25:23;100403.29;;;21.99;60.49
40570;BME280;26270;34.428;-119.710;2022-09-01T09:27:54;100403.64;;;21.91;60.67
40570;BME280;26270;34.428;-119.710;2022-09-01T09:30:24;100406.33;;;22.06;60.41
40570;BME280;26270;34.428;-119.710;2022-09-01T09:32:55;100402.72;;;21.87;60.75
40570;BME280;26270;34.428;-119.710;2022-09-01T09:35:26;100394.23;;;21.93;60.56
40570;BME280;26270;34.428;-119.710;2022-09-01T09:37:55;100389.28;;;21.75;60.98
40570;BME280;26270;34.428;-119.710;2022-09-01T09:40:24;100390.90;;;21.91;60.73
40570;BME280;26270;34.428;-119.710;2022-09-01T09:43:04;100402.41;;;21.95;60.68
40570;BME280;26270;34.428;-119.710;2022-09-01T09:45:36;100400.33;;;21.87;60.72
40570;BME280;26270;34.428;-119.710;2022-09-01T09:48:07;100404.68;;;21.85;60.55
40570;BME280;26270;34.428;-119.710;2022-09-01T09:50:37;100408.93;;;21.85;60.64
40570;BME280;26270;34.428;-119.710;2022-09-01T09:53:16;100415.60;;;21.96;60.25
40570;BME280;26270;34.428;-119.710;2022-09-01T09:56:03;100411.45;;;21.94;60.21
40570;BME280;26270;34.428;-119.710;2022-09-01T09:58:39;100410.42;;;21.95;59.99
40570;BME280;26270;34.428;-119.710;2022-09-01T10:01:11;100418.94;;;21.97;60.30
40570;BME280;26270;34.428;-119.710;2022-09-01T10:03:44;100422.97;;;21.96;60.10
40570;BME280;26270;34.428;-119.710;2022-09-01T10:06:28;100428.13;;;21.84;60.56
40570;BME280;26270;34.428;-119.710;2022-09-01T10:08:56;100428.62;;;22.08;60.69
40570;BME280;26270;34.428;-119.710;2022-09-01T10:11:28;100425.49;;;21.72;61.57
40570;BME280;26270;34.428;-119.710;2022-09-01T10:13:57;100423.26;;;21.75;61.22
40570;BME280;26270;34.428;-119.710;2022-09-01T10:16:28;100416.63;;;21.68;61.28
40570;BME280;26270;34.428;-119.710;2022-09-01T10:18:59;100410.70;;;21.86;61.12
40570;BME280;26270;34.428;-119.710;2022-09-01T10:21:32;100407.94;;;21.78;60.98
40570;BME280;26270;34.428;-119.710;2022-09-01T10:24:07;100404.73;;;21.87;61.02
40570;BME280;26270;34.428;-119.710;2022-09-01T10:26:38;100409.09;;;21.90;60.82
40570;BME280;26270;34.428;-119.710;2022-09-01T10:29:13;100401.02;;;21.79;61.51
40570;BME280;26270;34.428;-119.710;2022-09-01T10:31:43;100407.53;;;21.85;61.21
40570;BME280;26270;34.428;-119.710;2022-09-01T10:34:14;100404.36;;;21.72;61.49
40570;BME280;26270;34.428;-119.710;2022-09-01T10:36:45;100397.77;;;21.61;61.23
40570;BME280;26270;34.428;-119.710;2022-09-01T10:39:16;100390.10;;;21.73;61.04
40570;BME280;26270;34.428;-119.710;2022-09-01T10:41:49;100392.86;;;21.56;61.49
40570;BME280;26270;34.428;-119.710;2022-09-01T10:44:20;100395.68;;;21.54;61.48
40570;BME280;26270;34.428;-119.710;2022-09-01T10:46:50;100395.61;;;21.10;63.07
40570;BME280;26270;34.428;-119.710;2022-09-01T10:49:55;100397.31;;;21.46;62.16
40570;BME280;26270;34.428;-119.710;2022-09-01T10:53:06;100383.75;;;21.50;62.19
40570;BME280;26270;34.428;-119.710;2022-09-01T10:55:39;100379.91;;;21.61;61.99
40570;BME280;26270;34.428;-119.710;2022-09-01T10:58:34;100374.12;;;21.76;61.64
40570;BME280;26270;34.428;-119.710;2022-09-01T11:01:06;100366.45;;;21.59;61.71
40570;BME280;26270;34.428;-119.710;2022-09-01T11:03:54;100361.40;;;21.70;61.79
40570;BME280;26270;34.428;-119.710;2022-09-01T11:08:45;100354.57;;;21.63;61.64
40570;BME280;26270;34.428;-119.710;2022-09-01T11:11:28;100362.01;;;21.65;62.10
40570;BME280;26270;34.428;-119.710;2022-09-01T11:13:58;100365.31;;;21.57;62.48
40570;BME280;26270;34.428;-119.710;2022-09-01T11:16:31;100370.82;;;21.50;62.37
40570;BME280;26270;34.428;-119.710;2022-09-01T11:20:07;100366.70;;;21.43;62.74
40570;BME280;26270;34.428;-119.710;2022-09-01T11:22:38;100366.85;;;21.57;62.94
40570;BME280;26270;34.428;-119.710;2022-09-01T11:25:38;100372.15;;;21.46;62.97
40570;BME280;26270;34.428;-119.710;2022-09-01T11:28:10;100375.71;;;21.42;62.90
40570;BME280;26270;34.428;-119.710;2022-09-01T11:31:20;100376.15;;;21.51;62.57
40570;BME280;26270;34.428;-119.710;2022-09-01T11:33:56;100383.01;;;21.53;63.05
40570;BME280;26270;34.428;-119.710;2022-09-01T11:36:30;100385.92;;;21.62;63.01
40570;BME280;26270;34.428;-119.710;2022-09-01T11:39:06;100393.13;;;21.65;62.83
40570;BME280;26270;34.428;-119.710;2022-09-01T11:41:51;100386.63;;;21.59;62.76
40570;BME280;26270;34.428;-119.710;2022-09-01T11:44:25;100378.91;;;21.42;62.85
40570;BME280;26270;34.428;-119.710;2022-09-01T11:47:01;100379.47;;;21.42;63.34
40570;BME280;26270;34.428;-119.710;2022-09-01T11:49:32;100383.88;;;21.33;63.71
40570;BME280;26270;34.428;-119.710;2022-09-01T11:52:01;100382.82;;;21.36;63.66
40570;BME280;26270;34.428;-119.710;2022-09-01T11:54:37;100386.09;;;21.41;63.47
40570;BME280;26270;34.428;-119.710;2022-09-01T11:57:23;100387.75;;;21.46;63.43
40570;BME280;26270;34.428;-119.710;2022-09-01T11:59:52;100383.60;;;21.48;63.25
40570;BME280;26270;34.428;-119.710;2022-09-01T12:02:23;100391.82;;;21.55;63.13
40570;BME280;26270;34.428;-119.710;2022-09-01T12:04:53;100394.06;;;21.27;63.57
40570;BME280;26270;34.428;-119.710;2022-09-01T12:07:31;100386.53;;;21.08;64.49
40570;BME280;26270;34.428;-119.710;2022-09-01T12:10:03;100392.33;;;21.23;63.40
40570;BME280;26270;34.428;-119.710;2022-09-01T12:12:33;100398.87;;;21.28;63.38
40570;BME280;26270;34.428;-119.710;2022-09-01T12:15:07;100403.81;;;21.22;63.69
40570;BME280;26270;34.428;-119.710;2022-09-01T12:17:36;100404.59;;;21.31;63.78
40570;BME280;26270;34.428;-119.710;2022-09-01T12:20:23;100404.07;;;21.38;63.68
40570;BME280;26270;34.428;-119.710;2022-09-01T12:22:52;100406.23;;;21.21;63.81
40570;BME280;26270;34.428;-119.710;2022-09-01T12:25:23;100407.36;;;21.31;63.92
40570;BME280;26270;34.428;-119.710;2022-09-01T12:27:52;100401.51;;;21.27;64.25
40570;BME280;26270;34.428;-119.710;2022-09-01T12:30:22;100396.85;;;21.37;64.23
40570;BME280;26270;34.428;-119.710;2022-09-01T12:32:51;100395.35;;;21.21;64.26
40570;BME280;26270;34.428;-119.710;2022-09-01T12:35:22;100393.76;;;21.27;63.98
40570;BME280;26270;34.428;-119.710;2022-09-01T12:37:51;100395.87;;;21.14;63.94
40570;BME280;26270;34.428;-119.710;2022-09-01T12:40:25;100395.72;;;21.21;63.70
40570;BME280;26270;34.428;-119.710;2022-09-01T12:42:53;100399.36;;;21.13;64.39